sensor_id;sensor_type;location;lat;lon;timestamp;temperature;humidity
69895;DHT22;57172;52.034;5.090;2023-04-24T00:01:57;9.80;87.40
69895;DHT22;57172;52.034;5.090;2023-04-24T00:04:25;9.80;87.40
69895;DHT22;57172;52.034;5.090;2023-04-24T00:06:52;9.80;87.40
69895;DHT22;57172;52.034;5.090;2023-04-24T00:09:23;9.80;87.30
69895;DHT22;57172;52.034;5.090;2023-04-24T00:11:51;9.80;87.30
69895;DHT22;57172;52.034;5.090;2023-04-24T00:14:18;9.80;87.40
69895;DHT22;57172;52.034;5.090;2023-04-24T00:16:45;9.70;87.40
69895;DHT22;57172;52.034;5.090;2023-04-24T00:19:12;9.70;87.50
69895;DHT22;57172;52.034;5.090;2023-04-24T00:21:40;9.70;87.50
69895;DHT22;57172;52.034;5.090;2023-04-24T00:24:07;9.70;87.60
69895;DHT22;57172;52.034;5.090;2023-04-24T00:26:37;9.70;87.80
69895;DHT22;57172;52.034;5.090;2023-04-24T00:29:04;9.70;87.90
69895;DHT22;57172;52.034;5.090;2023-04-24T00:31:31;9.70;88.00
69895;DHT22;57172;52.034;5.090;2023-04-24T00:33:58;9.70;88.10
69895;DHT22;57172;52.034;5.090;2023-04-24T00:36:25;9.70;88.00
69895;DHT22;57172;52.034;5.090;2023-04-24T00:38:54;9.70;88.00
69895;DHT22;57172;52.034;5.090;2023-04-24T00:41:21;9.70;88.10
69895;DHT22;57172;52.034;5.090;2023-04-24T00:43:49;9.70;88.20
69895;DHT22;57172;52.034;5.090;2023-04-24T00:46:16;9.70;88.30
69895;DHT22;57172;52.034;5.090;2023-04-24T00:48:43;9.70;88.50
69895;DHT22;57172;52.034;5.090;2023-04-24T00:51:13;9.80;88.40
69895;DHT22;57172;52.034;5.090;2023-04-24T00:53:47;9.80;88.40
69895;DHT22;57172;52.034;5.090;2023-04-24T00:56:14;9.80;88.50
69895;DHT22;57172;52.034;5.090;2023-04-24T00:58:42;9.80;88.50
69895;DHT22;57172;52.034;5.090;2023-04-24T01:01:10;9.80;88.60
69895;DHT22;57172;52.034;5.090;2023-04-24T01:03:38;9.80;88.60
69895;DHT22;57172;52.034;5.090;2023-04-24T01:06:05;9.80;88.60
69895;DHT22;57172;52.034;5.090;2023-04-24T01:08:34;9.80;88.70
69895;DHT22;57172;52.034;5.090;2023-04-24T01:11:03;9.80;88.80
69895;DHT22;57172;52.034;5.090;2023-04-24T01:13:32;9.80;88.80
69895;DHT22;57172;52.034;5.090;2023-04-24T01:15:59;9.90;88.80
69895;DHT22;57172;52.034;5.090;2023-04-24T01:18:27;9.90;88.80
69895;DHT22;57172;52.034;5.090;2023-04-24T01:20:58;9.90;88.70
69895;DHT22;57172;52.034;5.090;2023-04-24T01:23:26;9.90;88.80
69895;DHT22;57172;52.034;5.090;2023-04-24T01:25:53;9.90;88.90
69895;DHT22;57172;52.034;5.090;2023-04-24T01:28:20;9.90;89.00
69895;DHT22;57172;52.034;5.090;2023-04-24T01:30:48;9.90;89.00
69895;DHT22;57172;52.034;5.090;2023-04-24T01:33:15;9.90;89.00
69895;DHT22;57172;52.034;5.090;2023-04-24T01:35:42;9.90;89.00
69895;DHT22;57172;52.034;5.090;2023-04-24T01:38:09;9.90;88.80
69895;DHT22;57172;52.034;5.090;2023-04-24T01:40:36;9.90;89.00
69895;DHT22;57172;52.034;5.090;2023-04-24T01:43:03;9.80;89.00
69895;DHT22;57172;52.034;5.090;2023-04-24T01:45:30;9.80;89.10
69895;DHT22;57172;52.034;5.090;2023-04-24T01:47:57;9.80;89.10
69895;DHT22;57172;52.034;5.090;2023-04-24T01:50:24;9.80;89.20
69895;DHT22;57172;52.034;5.090;2023-04-24T01:52:51;9.90;89.10
69895;DHT22;57172;52.034;5.090;2023-04-24T01:55:18;9.90;89.10
69895;DHT22;57172;52.034;5.090;2023-04-24T01:57:45;9.90;89.10
69895;DHT22;57172;52.034;5.090;2023-04-24T02:00:12;9.90;89.00
69895;DHT22;57172;52.034;5.090;2023-04-24T02:02:40;9.90;89.00
69895;DHT22;57172;52.034;5.090;2023-04-24T02:05:09;9.90;88.90
69895;DHT22;57172;52.034;5.090;2023-04-24T02:07:36;10.00;88.90
69895;DHT22;57172;52.034;5.090;2023-04-24T02:10:03;10.00;88.70
69895;DHT22;57172;52.034;5.090;2023-04-24T02:12:33;10.00;88.70
69895;DHT22;57172;52.034;5.090;2023-04-24T02:15:00;9.90;88.60
69895;DHT22;57172;52.034;5.090;2023-04-24T02:17:27;9.90;88.60
69895;DHT22;57172;52.034;5.090;2023-04-24T02:19:56;10.00;88.60
69895;DHT22;57172;52.034;5.090;2023-04-24T02:22:23;10.00;88.60
69895;DHT22;57172;52.034;5.090;2023-04-24T02:24:50;10.00;88.70
69895;DHT22;57172;52.034;5.090;2023-04-24T02:27:16;9.90;88.70
69895;DHT22;57172;52.034;5.090;2023-04-24T02:29:43;10.00;88.60
69895;DHT22;57172;52.034;5.090;2023-04-24T02:32:10;10.00;88.60
69895;DHT22;57172;52.034;5.090;2023-04-24T02:34:38;10.00;88.50
69895;DHT22;57172;52.034;5.090;2023-04-24T02:37:05;10.00;88.60
69895;DHT22;57172;52.034;5.090;2023-04-24T02:39:32;10.00;88.80
69895;DHT22;57172;52.034;5.090;2023-04-24T02:41:59;10.00;88.80
69895;DHT22;57172;52.034;5.090;2023-04-24T02:44:26;10.00;88.80
69895;DHT22;57172;52.034;5.090;2023-04-24T02:46:53;10.00;88.80
69895;DHT22;57172;52.034;5.090;2023-04-24T02:49:22;10.00;88.70
69895;DHT22;57172;52.034;5.090;2023-04-24T02:51:48;10.00;88.70
69895;DHT22;57172;52.034;5.090;2023-04-24T02:54:15;10.00;88.80
69895;DHT22;57172;52.034;5.090;2023-04-24T02:56:42;10.00;88.80
69895;DHT22;57172;52.034;5.090;2023-04-24T02:59:09;10.00;88.70
69895;DHT22;57172;52.034;5.090;2023-04-24T03:01:37;10.00;88.90
69895;DHT22;57172;52.034;5.090;2023-04-24T03:04:04;10.00;88.80
69895;DHT22;57172;52.034;5.090;2023-04-24T03:06:31;10.00;88.80
69895;DHT22;57172;52.034;5.090;2023-04-24T03:08:59;10.00;88.80
69895;DHT22;57172;52.034;5.090;2023-04-24T03:11:26;10.00;88.90
69895;DHT22;57172;52.034;5.090;2023-04-24T03:13:53;10.00;88.90
69895;DHT22;57172;52.034;5.090;2023-04-24T03:16:20;10.00;88.90
69895;DHT22;57172;52.034;5.090;2023-04-24T03:18:47;10.00;88.90
69895;DHT22;57172;52.034;5.090;2023-04-24T03:21:14;10.00;88.90
69895;DHT22;57172;52.034;5.090;2023-04-24T03:23:42;10.00;88.90
69895;DHT22;57172;52.034;5.090;2023-04-24T03:26:09;9.90;89.00
69895;DHT22;57172;52.034;5.090;2023-04-24T03:28:43;10.00;89.10
69895;DHT22;57172;52.034;5.090;2023-04-24T03:31:15;10.00;89.10
69895;DHT22;57172;52.034;5.090;2023-04-24T03:33:47;10.00;89.10
69895;DHT22;57172;52.034;5.090;2023-04-24T03:36:14;9.90;88.70
69895;DHT22;57172;52.034;5.090;2023-04-24T03:38:41;9.90;88.90
69895;DHT22;57172;52.034;5.090;2023-04-24T03:41:21;9.90;89.00
69895;DHT22;57172;52.034;5.090;2023-04-24T03:43:53;9.90;89.00
69895;DHT22;57172;52.034;5.090;2023-04-24T03:46:20;9.90;89.00
69895;DHT22;57172;52.034;5.090;2023-04-24T03:48:53;9.90;88.90
69895;DHT22;57172;52.034;5.090;2023-04-24T03:51:25;9.80;88.90
69895;DHT22;57172;52.034;5.090;2023-04-24T03:53:58;9.80;88.90
69895;DHT22;57172;52.034;5.090;2023-04-24T03:56:28;9.80;88.90
69895;DHT22;57172;52.034;5.090;2023-04-24T03:58:55;9.80;89.00
69895;DHT22;57172;52.034;5.090;2023-04-24T04:01:22;9.70;89.10
69895;DHT22;57172;52.034;5.090;2023-04-24T04:03:56;9.70;89.20
69895;DHT22;57172;52.034;5.090;2023-04-24T04:06:26;9.70;89.30
69895;DHT22;57172;52.034;5.090;2023-04-24T04:08:54;9.70;89.30
69895;DHT22;57172;52.034;5.090;2023-04-24T04:11:21;9.70;89.10
69895;DHT22;57172;52.034;5.090;2023-04-24T04:13:48;9.70;88.80
69895;DHT22;57172;52.034;5.090;2023-04-24T04:16:18;9.60;88.60
69895;DHT22;57172;52.034;5.090;2023-04-24T04:18:47;9.50;88.60
69895;DHT22;57172;52.034;5.090;2023-04-24T04:21:14;9.40;88.60
69895;DHT22;57172;52.034;5.090;2023-04-24T04:23:42;9.40;88.60
69895;DHT22;57172;52.034;5.090;2023-04-24T04:26:14;9.30;88.90
69895;DHT22;57172;52.034;5.090;2023-04-24T04:28:58;9.30;89.10
69895;DHT22;57172;52.034;5.090;2023-04-24T04:31:27;9.30;89.10
69895;DHT22;57172;52.034;5.090;2023-04-24T04:33:56;9.30;89.30
69895;DHT22;57172;52.034;5.090;2023-04-24T04:36:22;9.30;89.40
69895;DHT22;57172;52.034;5.090;2023-04-24T04:38:57;9.20;89.50
69895;DHT22;57172;52.034;5.090;2023-04-24T04:41:48;9.30;89.70
69895;DHT22;57172;52.034;5.090;2023-04-24T04:44:17;9.30;89.70
69895;DHT22;57172;52.034;5.090;2023-04-24T04:46:44;9.30;89.80
69895;DHT22;57172;52.034;5.090;2023-04-24T04:49:25;9.30;89.80
69895;DHT22;57172;52.034;5.090;2023-04-24T04:51:55;9.30;89.70
69895;DHT22;57172;52.034;5.090;2023-04-24T04:54:24;9.30;89.60
69895;DHT22;57172;52.034;5.090;2023-04-24T04:56:51;9.30;89.80
69895;DHT22;57172;52.034;5.090;2023-04-24T04:59:19;9.30;90.00
69895;DHT22;57172;52.034;5.090;2023-04-24T05:01:48;9.30;89.90
69895;DHT22;57172;52.034;5.090;2023-04-24T05:04:16;9.30;89.80
69895;DHT22;57172;52.034;5.090;2023-04-24T05:06:43;9.40;89.70
69895;DHT22;57172;52.034;5.090;2023-04-24T05:09:10;9.30;89.50
69895;DHT22;57172;52.034;5.090;2023-04-24T05:11:44;9.30;89.70
69895;DHT22;57172;52.034;5.090;2023-04-24T05:14:11;9.40;89.80
69895;DHT22;57172;52.034;5.090;2023-04-24T05:16:40;9.30;89.70
69895;DHT22;57172;52.034;5.090;2023-04-24T05:19:08;9.30;89.60
69895;DHT22;57172;52.034;5.090;2023-04-24T05:21:39;9.30;89.50
69895;DHT22;57172;52.034;5.090;2023-04-24T05:24:07;9.30;89.70
69895;DHT22;57172;52.034;5.090;2023-04-24T05:27:00;9.30;89.90
69895;DHT22;57172;52.034;5.090;2023-04-24T05:29:33;9.30;89.90
69895;DHT22;57172;52.034;5.090;2023-04-24T05:32:00;9.30;90.00
69895;DHT22;57172;52.034;5.090;2023-04-24T05:34:29;9.30;90.00
69895;DHT22;57172;52.034;5.090;2023-04-24T05:36:57;9.30;90.10
69895;DHT22;57172;52.034;5.090;2023-04-24T05:39:25;9.30;90.10
69895;DHT22;57172;52.034;5.090;2023-04-24T05:41:53;9.30;90.10
69895;DHT22;57172;52.034;5.090;2023-04-24T05:44:20;9.30;90.30
69895;DHT22;57172;52.034;5.090;2023-04-24T05:46:47;9.30;90.30
69895;DHT22;57172;52.034;5.090;2023-04-24T05:49:15;9.30;90.30
69895;DHT22;57172;52.034;5.090;2023-04-24T05:51:42;9.30;90.20
69895;DHT22;57172;52.034;5.090;2023-04-24T05:54:09;9.30;90.30
69895;DHT22;57172;52.034;5.090;2023-04-24T05:56:39;9.20;90.40
69895;DHT22;57172;52.034;5.090;2023-04-24T05:59:15;9.30;90.50
69895;DHT22;57172;52.034;5.090;2023-04-24T06:01:43;9.30;90.50
69895;DHT22;57172;52.034;5.090;2023-04-24T06:04:14;9.20;90.40
69895;DHT22;57172;52.034;5.090;2023-04-24T06:06:41;9.20;90.50
69895;DHT22;57172;52.034;5.090;2023-04-24T06:09:09;9.10;90.70
69895;DHT22;57172;52.034;5.090;2023-04-24T06:11:36;9.20;90.80
69895;DHT22;57172;52.034;5.090;2023-04-24T06:14:03;9.20;91.00
69895;DHT22;57172;52.034;5.090;2023-04-24T06:16:36;9.20;90.80
69895;DHT22;57172;52.034;5.090;2023-04-24T06:19:10;9.20;90.60
69895;DHT22;57172;52.034;5.090;2023-04-24T06:21:37;9.20;90.70
69895;DHT22;57172;52.034;5.090;2023-04-24T06:24:04;9.20;90.40
69895;DHT22;57172;52.034;5.090;2023-04-24T06:26:31;9.10;90.30
69895;DHT22;57172;52.034;5.090;2023-04-24T06:28:59;9.10;90.40
69895;DHT22;57172;52.034;5.090;2023-04-24T06:31:26;9.20;90.70
69895;DHT22;57172;52.034;5.090;2023-04-24T06:33:55;9.10;90.30
69895;DHT22;57172;52.034;5.090;2023-04-24T06:36:21;9.10;90.20
69895;DHT22;57172;52.034;5.090;2023-04-24T06:38:48;9.10;90.30
69895;DHT22;57172;52.034;5.090;2023-04-24T06:41:15;9.10;90.00
69895;DHT22;57172;52.034;5.090;2023-04-24T06:43:42;9.00;90.00
69895;DHT22;57172;52.034;5.090;2023-04-24T06:46:09;9.00;89.90
69895;DHT22;57172;52.034;5.090;2023-04-24T06:48:36;9.00;89.90
69895;DHT22;57172;52.034;5.090;2023-04-24T06:51:03;9.00;90.00
69895;DHT22;57172;52.034;5.090;2023-04-24T06:53:30;8.90;90.00
69895;DHT22;57172;52.034;5.090;2023-04-24T06:55:56;9.00;90.10
69895;DHT22;57172;52.034;5.090;2023-04-24T06:58:25;9.00;90.20
69895;DHT22;57172;52.034;5.090;2023-04-24T07:00:52;9.00;90.20
69895;DHT22;57172;52.034;5.090;2023-04-24T07:03:19;9.00;90.10
69895;DHT22;57172;52.034;5.090;2023-04-24T07:05:46;9.00;89.90
69895;DHT22;57172;52.034;5.090;2023-04-24T07:08:14;9.00;89.80
69895;DHT22;57172;52.034;5.090;2023-04-24T07:10:43;9.00;89.90
69895;DHT22;57172;52.034;5.090;2023-04-24T07:13:19;9.00;89.90
69895;DHT22;57172;52.034;5.090;2023-04-24T07:15:46;9.00;89.90
69895;DHT22;57172;52.034;5.090;2023-04-24T07:18:15;9.00;90.10
69895;DHT22;57172;52.034;5.090;2023-04-24T07:20:42;9.00;90.20
69895;DHT22;57172;52.034;5.090;2023-04-24T07:23:09;9.00;90.20
69895;DHT22;57172;52.034;5.090;2023-04-24T07:25:36;9.00;90.20
69895;DHT22;57172;52.034;5.090;2023-04-24T07:28:03;9.10;90.70
69895;DHT22;57172;52.034;5.090;2023-04-24T07:30:31;9.10;90.60
69895;DHT22;57172;52.034;5.090;2023-04-24T07:32:59;9.20;90.50
69895;DHT22;57172;52.034;5.090;2023-04-24T07:35:26;9.20;90.30
69895;DHT22;57172;52.034;5.090;2023-04-24T07:37:53;9.30;90.40
69895;DHT22;57172;52.034;5.090;2023-04-24T07:40:20;9.30;90.20
69895;DHT22;57172;52.034;5.090;2023-04-24T07:42:47;9.30;89.80
69895;DHT22;57172;52.034;5.090;2023-04-24T07:45:17;9.30;89.70
69895;DHT22;57172;52.034;5.090;2023-04-24T07:47:44;9.30;89.50
69895;DHT22;57172;52.034;5.090;2023-04-24T07:50:12;9.40;89.60
69895;DHT22;57172;52.034;5.090;2023-04-24T07:52:39;9.40;89.40
69895;DHT22;57172;52.034;5.090;2023-04-24T07:55:06;9.40;89.20
69895;DHT22;57172;52.034;5.090;2023-04-24T07:57:33;9.40;88.80
69895;DHT22;57172;52.034;5.090;2023-04-24T08:00:00;9.40;88.50
69895;DHT22;57172;52.034;5.090;2023-04-24T08:02:37;9.40;88.50
69895;DHT22;57172;52.034;5.090;2023-04-24T08:05:04;9.40;88.60
69895;DHT22;57172;52.034;5.090;2023-04-24T08:07:32;9.40;88.30
69895;DHT22;57172;52.034;5.090;2023-04-24T08:09:59;9.40;87.60
69895;DHT22;57172;52.034;5.090;2023-04-24T08:12:28;9.40;87.40
69895;DHT22;57172;52.034;5.090;2023-04-24T08:14:55;9.40;87.80
69895;DHT22;57172;52.034;5.090;2023-04-24T08:17:22;9.50;87.80
69895;DHT22;57172;52.034;5.090;2023-04-24T08:19:48;9.50;87.50
69895;DHT22;57172;52.034;5.090;2023-04-24T08:22:16;9.50;86.60
69895;DHT22;57172;52.034;5.090;2023-04-24T08:24:43;9.60;86.00
69895;DHT22;57172;52.034;5.090;2023-04-24T08:27:10;9.60;86.50
69895;DHT22;57172;52.034;5.090;2023-04-24T08:29:37;9.70;86.30
69895;DHT22;57172;52.034;5.090;2023-04-24T08:32:04;9.80;86.40
69895;DHT22;57172;52.034;5.090;2023-04-24T08:34:31;9.80;85.50
69895;DHT22;57172;52.034;5.090;2023-04-24T08:36:58;9.90;86.20
69895;DHT22;57172;52.034;5.090;2023-04-24T08:39:25;10.00;85.40
69895;DHT22;57172;52.034;5.090;2023-04-24T08:41:52;10.00;85.00
69895;DHT22;57172;52.034;5.090;2023-04-24T08:44:19;10.00;84.20
69895;DHT22;57172;52.034;5.090;2023-04-24T08:46:48;10.10;83.70
69895;DHT22;57172;52.034;5.090;2023-04-24T08:49:15;10.10;83.90
69895;DHT22;57172;52.034;5.090;2023-04-24T08:51:45;10.10;83.20
69895;DHT22;57172;52.034;5.090;2023-04-24T08:54:14;10.10;84.20
69895;DHT22;57172;52.034;5.090;2023-04-24T08:56:43;10.30;83.60
69895;DHT22;57172;52.034;5.090;2023-04-24T08:59:11;10.30;82.50
69895;DHT22;57172;52.034;5.090;2023-04-24T09:01:40;10.30;81.50
69895;DHT22;57172;52.034;5.090;2023-04-24T09:04:09;10.30;80.80
69895;DHT22;57172;52.034;5.090;2023-04-24T09:06:40;10.30;80.00
69895;DHT22;57172;52.034;5.090;2023-04-24T09:09:08;10.30;81.00
69895;DHT22;57172;52.034;5.090;2023-04-24T09:11:38;10.30;81.00
69895;DHT22;57172;52.034;5.090;2023-04-24T09:14:05;10.40;81.10
69895;DHT22;57172;52.034;5.090;2023-04-24T09:16:33;10.40;80.20
69895;DHT22;57172;52.034;5.090;2023-04-24T09:19:02;10.50;80.40
69895;DHT22;57172;52.034;5.090;2023-04-24T09:21:34;10.50;79.90
69895;DHT22;57172;52.034;5.090;2023-04-24T09:24:03;10.60;80.20
69895;DHT22;57172;52.034;5.090;2023-04-24T09:26:33;10.70;78.90
69895;DHT22;57172;52.034;5.090;2023-04-24T09:29:02;10.80;78.20
69895;DHT22;57172;52.034;5.090;2023-04-24T09:31:29;10.80;77.50
69895;DHT22;57172;52.034;5.090;2023-04-24T09:33:59;11.00;79.40
69895;DHT22;57172;52.034;5.090;2023-04-24T09:36:29;11.10;78.00
69895;DHT22;57172;52.034;5.090;2023-04-24T09:39:03;11.20;76.30
69895;DHT22;57172;52.034;5.090;2023-04-24T09:41:32;11.10;74.80
69895;DHT22;57172;52.034;5.090;2023-04-24T09:44:16;11.00;73.90
69895;DHT22;57172;52.034;5.090;2023-04-24T09:46:49;10.90;76.60
69895;DHT22;57172;52.034;5.090;2023-04-24T09:49:21;10.90;77.60
69895;DHT22;57172;52.034;5.090;2023-04-24T09:51:48;10.90;77.60
69895;DHT22;57172;52.034;5.090;2023-04-24T09:54:17;10.90;76.10
69895;DHT22;57172;52.034;5.090;2023-04-24T09:56:45;10.90;77.90
69895;DHT22;57172;52.034;5.090;2023-04-24T09:59:14;10.90;76.30
69895;DHT22;57172;52.034;5.090;2023-04-24T10:01:41;10.90;77.10
69895;DHT22;57172;52.034;5.090;2023-04-24T10:04:19;10.90;77.00
69895;DHT22;57172;52.034;5.090;2023-04-24T10:06:48;10.90;77.40
69895;DHT22;57172;52.034;5.090;2023-04-24T10:09:20;10.90;77.40
69895;DHT22;57172;52.034;5.090;2023-04-24T10:11:50;10.90;77.10
69895;DHT22;57172;52.034;5.090;2023-04-24T10:14:22;10.90;76.50
69895;DHT22;57172;52.034;5.090;2023-04-24T10:16:55;10.80;77.70
69895;DHT22;57172;52.034;5.090;2023-04-24T10:19:26;10.90;79.10
69895;DHT22;57172;52.034;5.090;2023-04-24T10:21:53;11.00;79.40
69895;DHT22;57172;52.034;5.090;2023-04-24T10:24:22;11.20;80.50
69895;DHT22;57172;52.034;5.090;2023-04-24T10:26:49;11.40;80.50
69895;DHT22;57172;52.034;5.090;2023-04-24T10:29:18;11.50;78.40
69895;DHT22;57172;52.034;5.090;2023-04-24T10:31:45;11.40;76.70
69895;DHT22;57172;52.034;5.090;2023-04-24T10:34:15;11.30;75.70
69895;DHT22;57172;52.034;5.090;2023-04-24T10:36:48;11.20;76.10
69895;DHT22;57172;52.034;5.090;2023-04-24T10:39:16;11.10;77.30
69895;DHT22;57172;52.034;5.090;2023-04-24T10:41:45;11.20;77.60
69895;DHT22;57172;52.034;5.090;2023-04-24T10:44:15;11.20;78.50
69895;DHT22;57172;52.034;5.090;2023-04-24T10:46:46;11.30;80.10
69895;DHT22;57172;52.034;5.090;2023-04-24T10:49:16;11.70;80.60
69895;DHT22;57172;52.034;5.090;2023-04-24T10:54:34;12.10;78.20
69895;DHT22;57172;52.034;5.090;2023-04-24T10:57:28;12.30;74.70
69895;DHT22;57172;52.034;5.090;2023-04-24T11:00:19;12.30;74.00
69895;DHT22;57172;52.034;5.090;2023-04-24T11:02:47;12.30;76.10
69895;DHT22;57172;52.034;5.090;2023-04-24T11:05:20;12.30;76.10
69895;DHT22;57172;52.034;5.090;2023-04-24T11:08:10;12.40;77.10
69895;DHT22;57172;52.034;5.090;2023-04-24T11:16:32;12.90;77.20
69895;DHT22;57172;52.034;5.090;2023-04-24T11:21:39;13.00;73.90
69895;DHT22;57172;52.034;5.090;2023-04-24T11:26:56;12.80;70.30
69895;DHT22;57172;52.034;5.090;2023-04-24T11:29:43;12.70;72.60
69895;DHT22;57172;52.034;5.090;2023-04-24T11:32:29;12.60;72.60
69895;DHT22;57172;52.034;5.090;2023-04-24T11:35:20;12.40;72.00
69895;DHT22;57172;52.034;5.090;2023-04-24T11:37:47;12.20;72.40
69895;DHT22;57172;52.034;5.090;2023-04-24T11:40:21;12.10;72.70
69895;DHT22;57172;52.034;5.090;2023-04-24T11:42:53;11.90;72.90
69895;DHT22;57172;52.034;5.090;2023-04-24T11:45:24;11.70;73.50
69895;DHT22;57172;52.034;5.090;2023-04-24T11:47:51;11.50;72.10
69895;DHT22;57172;52.034;5.090;2023-04-24T11:50:21;11.40;71.90
69895;DHT22;57172;52.034;5.090;2023-04-24T11:52:50;11.20;73.00
69895;DHT22;57172;52.034;5.090;2023-04-24T11:57:50;11.00;72.50
69895;DHT22;57172;52.034;5.090;2023-04-24T12:00:26;10.70;74.80
69895;DHT22;57172;52.034;5.090;2023-04-24T12:03:07;10.70;75.20
69895;DHT22;57172;52.034;5.090;2023-04-24T12:05:36;10.70;76.10
69895;DHT22;57172;52.034;5.090;2023-04-24T12:08:03;10.70;73.90
69895;DHT22;57172;52.034;5.090;2023-04-24T12:10:32;10.80;75.20
69895;DHT22;57172;52.034;5.090;2023-04-24T12:13:00;10.90;76.40
69895;DHT22;57172;52.034;5.090;2023-04-24T12:15:27;11.10;75.30
69895;DHT22;57172;52.034;5.090;2023-04-24T12:17:55;11.20;76.00
69895;DHT22;57172;52.034;5.090;2023-04-24T12:20:28;11.30;75.40
69895;DHT22;57172;52.034;5.090;2023-04-24T12:22:57;11.30;73.40
69895;DHT22;57172;52.034;5.090;2023-04-24T12:25:32;11.20;71.50
69895;DHT22;57172;52.034;5.090;2023-04-24T12:30:43;11.00;72.80
69895;DHT22;57172;52.034;5.090;2023-04-24T12:33:11;11.00;73.30
69895;DHT22;57172;52.034;5.090;2023-04-24T12:35:40;11.00;73.20
69895;DHT22;57172;52.034;5.090;2023-04-24T12:38:11;11.00;74.30
69895;DHT22;57172;52.034;5.090;2023-04-24T12:40:40;11.00;73.00
69895;DHT22;57172;52.034;5.090;2023-04-24T12:45:41;11.00;73.90
69895;DHT22;57172;52.034;5.090;2023-04-24T12:48:08;11.10;74.90
69895;DHT22;57172;52.034;5.090;2023-04-24T12:50:34;11.20;73.90
69895;DHT22;57172;52.034;5.090;2023-04-24T12:53:01;11.20;73.30
69895;DHT22;57172;52.034;5.090;2023-04-24T12:55:29;11.20;73.60
69895;DHT22;57172;52.034;5.090;2023-04-24T12:57:55;11.20;71.80
69895;DHT22;57172;52.034;5.090;2023-04-24T13:00:22;11.20;73.70
69895;DHT22;57172;52.034;5.090;2023-04-24T13:02:49;11.40;74.70
69895;DHT22;57172;52.034;5.090;2023-04-24T13:05:16;11.60;75.00
69895;DHT22;57172;52.034;5.090;2023-04-24T13:07:43;12.10;78.30
69895;DHT22;57172;52.034;5.090;2023-04-24T13:10:10;12.60;77.90
69895;DHT22;57172;52.034;5.090;2023-04-24T13:12:37;13.20;78.50
69895;DHT22;57172;52.034;5.090;2023-04-24T13:15:06;13.90;78.60
69895;DHT22;57172;52.034;5.090;2023-04-24T13:17:33;14.10;71.30
69895;DHT22;57172;52.034;5.090;2023-04-24T13:20:00;13.90;69.70
69895;DHT22;57172;52.034;5.090;2023-04-24T13:22:27;13.70;66.50
69895;DHT22;57172;52.034;5.090;2023-04-24T13:24:54;13.50;70.10
69895;DHT22;57172;52.034;5.090;2023-04-24T13:27:21;13.60;68.50
69895;DHT22;57172;52.034;5.090;2023-04-24T13:29:48;13.70;71.90
69895;DHT22;57172;52.034;5.090;2023-04-24T13:32:15;14.30;75.50
69895;DHT22;57172;52.034;5.090;2023-04-24T13:34:42;14.90;72.80
69895;DHT22;57172;52.034;5.090;2023-04-24T13:37:09;15.10;75.40
69895;DHT22;57172;52.034;5.090;2023-04-24T13:39:36;15.60;72.20
69895;DHT22;57172;52.034;5.090;2023-04-24T13:42:03;15.90;70.80
69895;DHT22;57172;52.034;5.090;2023-04-24T13:44:31;15.60;63.00
69895;DHT22;57172;52.034;5.090;2023-04-24T13:46:58;15.20;62.70
69895;DHT22;57172;52.034;5.090;2023-04-24T13:49:26;14.70;63.70
69895;DHT22;57172;52.034;5.090;2023-04-24T13:51:54;14.50;65.20
69895;DHT22;57172;52.034;5.090;2023-04-24T13:54:21;14.50;66.50
69895;DHT22;57172;52.034;5.090;2023-04-24T13:56:51;14.40;67.50
69895;DHT22;57172;52.034;5.090;2023-04-24T13:59:20;14.50;68.30
69895;DHT22;57172;52.034;5.090;2023-04-24T14:01:47;14.50;64.80
69895;DHT22;57172;52.034;5.090;2023-04-24T14:04:15;14.40;67.30
69895;DHT22;57172;52.034;5.090;2023-04-24T14:06:43;14.40;66.90
69895;DHT22;57172;52.034;5.090;2023-04-24T14:09:10;14.40;67.90
69895;DHT22;57172;52.034;5.090;2023-04-24T14:11:37;14.50;67.50
69895;DHT22;57172;52.034;5.090;2023-04-24T14:14:04;14.40;64.80
69895;DHT22;57172;52.034;5.090;2023-04-24T14:16:31;14.30;66.30
69895;DHT22;57172;52.034;5.090;2023-04-24T14:18:58;14.40;69.50
69895;DHT22;57172;52.034;5.090;2023-04-24T14:21:25;14.60;70.30
69895;DHT22;57172;52.034;5.090;2023-04-24T14:23:52;14.90;69.20
69895;DHT22;57172;52.034;5.090;2023-04-24T14:26:19;15.00;66.50
69895;DHT22;57172;52.034;5.090;2023-04-24T14:28:46;14.90;66.00
69895;DHT22;57172;52.034;5.090;2023-04-24T14:31:13;14.90;68.50
69895;DHT22;57172;52.034;5.090;2023-04-24T14:33:40;14.90;65.40
69895;DHT22;57172;52.034;5.090;2023-04-24T14:36:07;15.00;68.70
69895;DHT22;57172;52.034;5.090;2023-04-24T14:38:34;15.10;67.40
69895;DHT22;57172;52.034;5.090;2023-04-24T14:41:01;15.00;64.10
69895;DHT22;57172;52.034;5.090;2023-04-24T14:43:39;14.60;61.80
69895;DHT22;57172;52.034;5.090;2023-04-24T14:46:07;14.10;64.30
69895;DHT22;57172;52.034;5.090;2023-04-24T14:48:34;13.70;65.30
69895;DHT22;57172;52.034;5.090;2023-04-24T14:51:01;13.10;66.10
69895;DHT22;57172;52.034;5.090;2023-04-24T14:53:27;12.80;68.40
69895;DHT22;57172;52.034;5.090;2023-04-24T14:55:54;12.70;68.10
69895;DHT22;57172;52.034;5.090;2023-04-24T14:58:21;12.60;67.00
69895;DHT22;57172;52.034;5.090;2023-04-24T15:00:48;12.60;69.20
69895;DHT22;57172;52.034;5.090;2023-04-24T15:03:21;12.60;68.20
69895;DHT22;57172;52.034;5.090;2023-04-24T15:05:49;12.70;68.10
69895;DHT22;57172;52.034;5.090;2023-04-24T15:08:17;12.70;70.30
69895;DHT22;57172;52.034;5.090;2023-04-24T15:10:44;12.90;68.90
69895;DHT22;57172;52.034;5.090;2023-04-24T15:13:11;12.90;71.60
69895;DHT22;57172;52.034;5.090;2023-04-24T15:15:38;13.00;68.70
69895;DHT22;57172;52.034;5.090;2023-04-24T15:18:05;13.00;68.80
69895;DHT22;57172;52.034;5.090;2023-04-24T15:20:32;12.90;68.30
69895;DHT22;57172;52.034;5.090;2023-04-24T15:22:59;12.90;69.80
69895;DHT22;57172;52.034;5.090;2023-04-24T15:25:27;13.10;69.30
69895;DHT22;57172;52.034;5.090;2023-04-24T15:27:54;13.50;72.70
69895;DHT22;57172;52.034;5.090;2023-04-24T15:30:21;13.90;72.70
69895;DHT22;57172;52.034;5.090;2023-04-24T15:32:47;14.10;70.80
69895;DHT22;57172;52.034;5.090;2023-04-24T15:35:14;14.00;67.00
69895;DHT22;57172;52.034;5.090;2023-04-24T15:37:42;13.70;63.50
69895;DHT22;57172;52.034;5.090;2023-04-24T15:40:10;13.30;63.60
69895;DHT22;57172;52.034;5.090;2023-04-24T15:42:40;13.00;66.20
69895;DHT22;57172;52.034;5.090;2023-04-24T15:45:08;12.90;67.90
69895;DHT22;57172;52.034;5.090;2023-04-24T15:47:35;13.00;69.40
69895;DHT22;57172;52.034;5.090;2023-04-24T15:50:03;13.10;68.30
69895;DHT22;57172;52.034;5.090;2023-04-24T15:52:29;13.10;67.30
69895;DHT22;57172;52.034;5.090;2023-04-24T15:54:56;13.00;66.40
69895;DHT22;57172;52.034;5.090;2023-04-24T15:57:23;13.00;68.40
69895;DHT22;57172;52.034;5.090;2023-04-24T15:59:50;13.20;66.70
69895;DHT22;57172;52.034;5.090;2023-04-24T16:02:17;13.30;66.00
69895;DHT22;57172;52.034;5.090;2023-04-24T16:04:49;13.20;66.30
69895;DHT22;57172;52.034;5.090;2023-04-24T16:07:17;13.20;65.10
69895;DHT22;57172;52.034;5.090;2023-04-24T16:09:44;13.20;67.90